Time;durP1;ratioP1;P1;durP2;ratioP2;P2;SDS_P1;SDS_P2;PMS_P1;PMS_P2;Temp;Humidity;BMP_temperature;BMP_pressure;BME280_temperature;BME280_humidity;BME280_pressure;Samples;Min_cycle;Max_cycle;Signal;HPM_P1;HPM_P2
2023/08/06 00:00:08;;;;;;;102.63;97.22;;;;;;;;;;5074972;28;20086;-90
2023/08/06 00:02:34;;;;;;;86.47;81.90;;;;;;;;;;5073966;28;20028;-91
2023/08/06 00:05:01;;;;;;;100.60;95.32;;;;;;;;;;5073583;28;20033;-92
2023/08/06 00:07:29;;;;;;;107.72;102.00;;;;;;;;;;5073446;28;20039;-92
2023/08/06 00:09:55;;;;;;;82.93;78.55;;;;;;;;;;5073552;28;20047;-92
2023/08/06 00:12:22;;;;;;;72.10;68.32;;;;;;;;;;5073494;28;20024;-90
2023/08/06 00:14:51;;;;;;;99.55;94.18;;;;;;;;;;5073792;28;20025;-93
2023/08/06 00:17:21;;;;;;;77.00;72.88;;;;;;;;;;5073954;28;20108;-90
2023/08/06 00:19:47;;;;;;;80.55;76.32;;;;;;;;;;5070698;28;20420;-92
2023/08/06 00:22:13;;;;;;;77.90;73.80;;;;;;;;;;5069200;28;20035;-91
2023/08/06 00:24:39;;;;;;;87.75;83.22;;;;;;;;;;5086436;28;20021;-91
2023/08/06 00:27:06;;;;;;;88.78;84.05;;;;;;;;;;5088641;28;20024;-91
2023/08/06 00:29:32;;;;;;;73.55;69.75;;;;;;;;;;5093629;28;20041;-90
2023/08/06 00:32:01;;;;;;;74.72;70.88;;;;;;;;;;5059590;28;20029;-93
2023/08/06 00:34:27;;;;;;;81.72;77.50;;;;;;;;;;5053348;28;20017;-92
2023/08/06 00:36:54;;;;;;;81.35;76.93;;;;;;;;;;5055053;28;20029;-91
2023/08/06 00:39:20;;;;;;;95.15;90.10;;;;;;;;;;5053710;28;20017;-92
2023/08/06 00:41:46;;;;;;;84.47;80.07;;;;;;;;;;5053303;28;20032;-91
2023/08/06 00:44:12;;;;;;;93.00;88.20;;;;;;;;;;5053087;28;20032;-91
2023/08/06 00:46:39;;;;;;;85.40;80.93;;;;;;;;;;5061354;28;20134;-93
2023/08/06 00:49:05;;;;;;;81.47;77.20;;;;;;;;;;5072102;28;20032;-92
2023/08/06 00:51:32;;;;;;;82.68;78.22;;;;;;;;;;5058855;28;20116;-92
2023/08/06 00:53:58;;;;;;;84.85;80.45;;;;;;;;;;5053228;28;20029;-91
2023/08/06 00:56:25;;;;;;;94.88;89.93;;;;;;;;;;5054308;28;20021;-91
2023/08/06 00:58:51;;;;;;;80.10;75.72;;;;;;;;;;5053029;28;20021;-92
2023/08/06 01:01:17;;;;;;;79.00;74.90;;;;;;;;;;5054803;28;20032;-90
2023/08/06 01:03:44;;;;;;;85.03;80.68;;;;;;;;;;5057358;28;20061;-91
2023/08/06 01:06:10;;;;;;;81.75;77.50;;;;;;;;;;5057152;28;20040;-92
2023/08/06 01:08:36;;;;;;;79.38;75.18;;;;;;;;;;5057022;28;20051;-91
2023/08/06 01:11:05;;;;;;;78.38;74.20;;;;;;;;;;5056769;28;20064;-92
2023/08/06 01:13:46;;;;;;;75.50;71.53;;;;;;;;;;5057218;28;20074;-90
2023/08/06 01:16:17;;;;;;;66.40;62.95;;;;;;;;;;5073478;28;20397;-90
2023/08/06 01:18:46;;;;;;;69.90;66.30;;;;;;;;;;5076828;28;20028;-92
2023/08/06 01:21:13;;;;;;;89.07;84.35;;;;;;;;;;5077095;28;20025;-91
2023/08/06 01:23:39;;;;;;;81.97;77.75;;;;;;;;;;5076988;28;20036;-92
2023/08/06 01:26:27;;;;;;;73.85;69.75;;;;;;;;;;5062836;28;20036;-92
2023/08/06 01:29:00;;;;;;;73.38;69.47;;;;;;;;;;5056950;28;20048;-92
2023/08/06 01:31:32;;;;;;;73.13;69.38;;;;;;;;;;5064850;28;20021;-90
2023/08/06 01:34:00;;;;;;;52.63;49.90;;;;;;;;;;5076566;28;20484;-91
2023/08/06 01:36:26;;;;;;;72.40;68.68;;;;;;;;;;5076627;28;20110;-92
2023/08/06 01:38:53;;;;;;;85.82;81.40;;;;;;;;;;5076363;28;20029;-92
2023/08/06 01:41:20;;;;;;;73.63;69.85;;;;;;;;;;5076548;28;20461;-90
2023/08/06 01:43:46;;;;;;;82.55;78.25;;;;;;;;;;5076080;28;20032;-92
2023/08/06 01:46:13;;;;;;;67.32;63.83;;;;;;;;;;5075935;28;20049;-92
2023/08/06 01:48:39;;;;;;;70.68;67.05;;;;;;;;;;5076158;28;20021;-91
2023/08/06 01:51:06;;;;;;;72.28;68.40;;;;;;;;;;5076441;28;20074;-93
2023/08/06 01:53:32;;;;;;;78.75;74.57;;;;;;;;;;5076253;28;20020;-90
2023/08/06 01:55:58;;;;;;;76.35;72.38;;;;;;;;;;5076055;28;20052;-91
2023/08/06 01:58:25;;;;;;;70.47;66.88;;;;;;;;;;5076692;28;20024;-90
2023/08/06 02:00:54;;;;;;;75.30;71.25;;;;;;;;;;5075896;28;20035;-91
2023/08/06 02:03:20;;;;;;;68.85;65.28;;;;;;;;;;5076312;28;20027;-91
2023/08/06 02:05:46;;;;;;;77.70;73.70;;;;;;;;;;5075977;28;20044;-90
2023/08/06 02:08:13;;;;;;;82.93;78.68;;;;;;;;;;5075829;28;20481;-92
2023/08/06 02:10:39;;;;;;;78.95;74.88;;;;;;;;;;5072134;28;20029;-90
2023/08/06 02:13:05;;;;;;;71.40;67.55;;;;;;;;;;5055451;28;20488;-92
2023/08/06 02:15:31;;;;;;;67.18;63.67;;;;;;;;;;5055957;28;20393;-93
2023/08/06 02:17:57;;;;;;;68.88;65.30;;;;;;;;;;5055747;28;20021;-91
2023/08/06 02:20:23;;;;;;;62.90;59.63;;;;;;;;;;5055613;28;20569;-92
2023/08/06 02:22:49;;;;;;;65.45;61.85;;;;;;;;;;5055973;28;20036;-92
2023/08/06 02:25:16;;;;;;;70.30;66.68;;;;;;;;;;5056832;28;20040;-92
2023/08/06 02:27:42;;;;;;;56.63;53.70;;;;;;;;;;5063906;28;20025;-93
2023/08/06 02:30:08;;;;;;;64.53;61.20;;;;;;;;;;5055660;28;20127;-92
2023/08/06 02:32:35;;;;;;;61.97;58.70;;;;;;;;;;5055489;28;20367;-92
2023/08/06 02:35:02;;;;;;;57.88;54.80;;;;;;;;;;5055344;28;20029;-93
2023/08/06 02:37:28;;;;;;;63.67;60.30;;;;;;;;;;5055777;28;20025;-91
2023/08/06 02:39:54;;;;;;;59.22;56.08;;;;;;;;;;5057840;28;20024;-93
2023/08/06 02:42:21;;;;;;;66.90;63.33;;;;;;;;;;5082210;28;20107;-93
2023/08/06 02:44:47;;;;;;;70.32;66.63;;;;;;;;;;5055617;28;20060;-91
2023/08/06 02:47:13;;;;;;;60.63;57.50;;;;;;;;;;5055138;28;20066;-94
2023/08/06 02:49:39;;;;;;;87.60;82.88;;;;;;;;;;5055156;28;20036;-93
2023/08/06 02:52:05;;;;;;;67.18;63.72;;;;;;;;;;5065647;28;20370;-92
2023/08/06 02:54:31;;;;;;;58.95;55.90;;;;;;;;;;5072247;28;20020;-92
2023/08/06 02:56:58;;;;;;;54.85;52.03;;;;;;;;;;5075791;28;20115;-91
2023/08/06 02:59:24;;;;;;;57.53;54.53;;;;;;;;;;5075587;28;20024;-92
2023/08/06 03:01:50;;;;;;;58.50;55.40;;;;;;;;;;5075374;28;20032;-92
2023/08/06 03:04:18;;;;;;;64.03;60.60;;;;;;;;;;5076040;28;20107;-91
2023/08/06 03:06:44;;;;;;;55.78;52.88;;;;;;;;;;5062068;28;20123;-92
2023/08/06 03:09:11;;;;;;;49.70;47.00;;;;;;;;;;5077415;28;20028;-93
2023/08/06 03:11:38;;;;;;;48.05;45.53;;;;;;;;;;5056616;28;20466;-91
2023/08/06 03:14:04;;;;;;;52.38;49.22;;;;;;;;;;5057153;28;20025;-92
2023/08/06 03:16:30;;;;;;;50.55;47.70;;;;;;;;;;5055928;28;20029;-91
2023/08/06 03:18:56;;;;;;;53.58;50.75;;;;;;;;;;5055036;28;20116;-91
2023/08/06 03:21:22;;;;;;;56.67;53.70;;;;;;;;;;5065680;28;20076;-92
2023/08/06 03:23:48;;;;;;;38.30;36.22;;;;;;;;;;5090546;28;20005;-92
2023/08/06 03:26:15;;;;;;;58.17;54.40;;;;;;;;;;5073347;28;20052;-93
2023/08/06 03:28:41;;;;;;;44.72;42.33;;;;;;;;;;5062390;28;20143;-90
2023/08/06 03:31:07;;;;;;;51.83;48.95;;;;;;;;;;5055166;28;20094;-93
2023/08/06 03:33:33;;;;;;;42.60;40.38;;;;;;;;;;5063196;28;20021;-93
2023/08/06 03:35:59;;;;;;;46.83;44.05;;;;;;;;;;5074613;28;20070;-91
2023/08/06 03:38:25;;;;;;;44.00;41.70;;;;;;;;;;5074666;28;20500;-92
2023/08/06 03:40:52;;;;;;;55.50;52.35;;;;;;;;;;5074359;28;20021;-92
2023/08/06 03:43:18;;;;;;;54.22;51.35;;;;;;;;;;5060622;28;20033;-92
2023/08/06 03:45:44;;;;;;;41.10;38.95;;;;;;;;;;5053821;28;20136;-92
2023/08/06 03:48:11;;;;;;;50.67;48.00;;;;;;;;;;5054011;28;20358;-90
2023/08/06 03:50:38;;;;;;;45.75;43.35;;;;;;;;;;5053837;28;20025;-92
2023/08/06 03:53:04;;;;;;;47.42;44.97;;;;;;;;;;5054473;28;20043;-91
2023/08/06 03:55:31;;;;;;;44.33;42.00;;;;;;;;;;5054000;28;20029;-92
2023/08/06 03:57:57;;;;;;;50.10;47.50;;;;;;;;;;5054150;28;20028;-91
2023/08/06 04:00:23;;;;;;;50.80;48.03;;;;;;;;;;5054382;28;20056;-90
2023/08/06 04:02:49;;;;;;;45.70;43.22;;;;;;;;;;5053812;28;20021;-92
2023/08/06 04:05:19;;;;;;;41.58;39.28;;;;;;;;;;5053538;28;20041;-92
2023/08/06 04:07:45;;;;;;;38.50;36.47;;;;;;;;;;5053890;28;20025;-91
2023/08/06 04:10:11;;;;;;;32.88;31.17;;;;;;;;;;5053886;28;20025;-92
2023/08/06 04:12:39;;;;;;;49.35;46.80;;;;;;;;;;5054290;28;20025;-91
2023/08/06 04:15:05;;;;;;;36.42;34.53;;;;;;;;;;5054003;28;20021;-91
2023/08/06 04:17:31;;;;;;;47.78;44.80;;;;;;;;;;5054709;28;20025;-89
2023/08/06 04:20:01;;;;;;;46.67;44.22;;;;;;;;;;5053802;28;20078;-91
2023/08/06 04:22:28;;;;;;;43.83;41.42;;;;;;;;;;5053778;28;20029;-89
2023/08/06 04:24:54;;;;;;;41.85;39.70;;;;;;;;;;5066530;28;20047;-90
2023/08/06 04:27:20;;;;;;;44.97;42.60;;;;;;;;;;5073945;28;20028;-92
2023/08/06 04:29:46;;;;;;;57.10;54.08;;;;;;;;;;5073594;28;20390;-92
2023/08/06 04:32:13;;;;;;;40.90;38.75;;;;;;;;;;5067875;28;20021;-91
2023/08/06 04:34:39;;;;;;;39.65;37.38;;;;;;;;;;5053879;28;20036;-91
2023/08/06 04:37:06;;;;;;;39.67;37.65;;;;;;;;;;5059881;28;20128;-90
2023/08/06 04:39:32;;;;;;;44.42;42.05;;;;;;;;;;5053541;28;20028;-92
2023/08/06 04:41:58;;;;;;;40.70;38.60;;;;;;;;;;5053102;28;20095;-92
2023/08/06 04:44:27;;;;;;;40.25;38.08;;;;;;;;;;5053143;28;20029;-92
2023/08/06 04:47:04;;;;;;;41.65;39.47;;;;;;;;;;5070967;28;20509;-93
2023/08/06 04:49:30;;;;;;;34.50;32.70;;;;;;;;;;5074699;28;20021;-91
2023/08/06 04:51:57;;;;;;;43.38;41.05;;;;;;;;;;5073652;28;20031;-91
2023/08/06 04:54:23;;;;;;;71.32;66.15;;;;;;;;;;5073682;28;20039;-92
2023/08/06 04:56:49;;;;;;;41.38;39.17;;;;;;;;;;5064432;28;20044;-92
2023/08/06 04:59:15;;;;;;;36.85;34.80;;;;;;;;;;5053716;28;20036;-89
2023/08/06 05:01:41;;;;;;;36.40;34.47;;;;;;;;;;5055049;28;20021;-91
2023/08/06 05:04:07;;;;;;;42.83;40.58;;;;;;;;;;5062136;28;20108;-91
2023/08/06 05:06:33;;;;;;;46.97;43.85;;;;;;;;;;5060571;28;20405;-90
2023/08/06 05:08:59;;;;;;;36.15;34.25;;;;;;;;;;5052896;28;20025;-89
2023/08/06 05:11:26;;;;;;;37.80;35.72;;;;;;;;;;5052909;28;20078;-90
2023/08/06 05:13:52;;;;;;;36.40;34.47;;;;;;;;;;5067496;28;20111;-92
2023/08/06 05:16:18;;;;;;;45.42;43.03;;;;;;;;;;5072972;28;20569;-91
2023/08/06 05:18:44;;;;;;;35.95;34.08;;;;;;;;;;5073132;28;20031;-89
2023/08/06 05:21:10;;;;;;;35.25;33.35;;;;;;;;;;5073005;28;20056;-91
2023/08/06 05:23:37;;;;;;;44.28;41.83;;;;;;;;;;5072767;28;20074;-90
2023/08/06 05:26:03;;;;;;;36.63;34.60;;;;;;;;;;5073028;28;20037;-89
2023/08/06 05:28:29;;;;;;;39.72;37.42;;;;;;;;;;5073187;28;20052;-92
2023/08/06 05:30:55;;;;;;;41.30;39.08;;;;;;;;;;5073835;28;20078;-89
2023/08/06 05:33:21;;;;;;;41.95;39.70;;;;;;;;;;5072965;28;20129;-92
2023/08/06 05:35:51;;;;;;;50.60;47.78;;;;;;;;;;5073085;28;20024;-91
2023/08/06 05:38:17;;;;;;;39.47;37.28;;;;;;;;;;5076364;28;20135;-91
2023/08/06 05:40:43;;;;;;;40.65;38.55;;;;;;;;;;5072755;28;20028;-92
2023/08/06 05:43:09;;;;;;;44.50;42.00;;;;;;;;;;5076655;28;20059;-93
2023/08/06 05:45:35;;;;;;;53.10;50.28;;;;;;;;;;5078260;28;20131;-93
2023/08/06 05:48:02;;;;;;;42.45;40.15;;;;;;;;;;5077635;28;20036;-93
2023/08/06 05:50:28;;;;;;;37.28;35.28;;;;;;;;;;5065990;28;20170;-93
2023/08/06 05:52:54;;;;;;;38.83;36.80;;;;;;;;;;5059756;28;20060;-94
2023/08/06 05:55:21;;;;;;;58.15;54.70;;;;;;;;;;5059508;28;20051;-92
2023/08/06 05:57:47;;;;;;;37.42;35.47;;;;;;;;;;5062518;28;20507;-91
2023/08/06 06:00:13;;;;;;;42.65;40.35;;;;;;;;;;5059490;28;20092;-93
2023/08/06 06:02:40;;;;;;;51.15;48.42;;;;;;;;;;5078851;28;20017;-92
2023/08/06 06:05:07;;;;;;;40.20;38.10;;;;;;;;;;5059174;28;20053;-94
2023/08/06 06:07:33;;;;;;;45.38;42.70;;;;;;;;;;5059321;28;20112;-93
2023/08/06 06:09:59;;;;;;;42.95;40.63;;;;;;;;;;5066758;28;20028;-93
2023/08/06 06:12:26;;;;;;;42.72;40.45;;;;;;;;;;5079704;28;20118;-93
2023/08/06 06:14:52;;;;;;;40.35;38.20;;;;;;;;;;5079773;28;20080;-91
2023/08/06 06:17:18;;;;;;;45.45;42.90;;;;;;;;;;5079416;28;20028;-92
2023/08/06 06:19:47;;;;;;;50.40;47.78;;;;;;;;;;5087873;28;20028;-92
2023/08/06 06:22:14;;;;;;;43.15;40.83;;;;;;;;;;5092407;28;20084;-90
2023/08/06 06:24:41;;;;;;;82.00;76.43;;;;;;;;;;5092533;28;20468;-91
2023/08/06 06:27:07;;;;;;;41.40;39.15;;;;;;;;;;5088717;28;20035;-90
2023/08/06 06:29:37;;;;;;;48.70;46.08;;;;;;;;;;5089870;28;20108;-93
2023/08/06 06:32:03;;;;;;;49.67;46.83;;;;;;;;;;5073633;28;20088;-92
2023/08/06 06:34:29;;;;;;;41.60;39.35;;;;;;;;;;5086019;28;20035;-93
2023/08/06 06:40:03;;;;;;;48.53;45.90;;;;;;;;;;5097029;28;20049;-92
2023/08/06 06:42:32;;;;;;;45.20;42.80;;;;;;;;;;5076046;28;20116;-93
2023/08/06 06:44:59;;;;;;;43.30;41.00;;;;;;;;;;5060351;28;20174;-92
2023/08/06 06:47:25;;;;;;;45.63;43.13;;;;;;;;;;5055382;28;20041;-93
2023/08/06 06:49:51;;;;;;;43.15;40.85;;;;;;;;;;5056080;28;20025;-93
2023/08/06 06:52:17;;;;;;;49.75;47.13;;;;;;;;;;5055335;28;20029;-94
2023/08/06 06:54:49;;;;;;;53.40;50.30;;;;;;;;;;5054939;28;20131;-93
2023/08/06 06:57:24;;;;;;;52.50;49.72;;;;;;;;;;5055516;28;20116;-92
2023/08/06 06:59:56;;;;;;;46.17;43.65;;;;;;;;;;5055843;28;20033;-92
2023/08/06 07:02:25;;;;;;;42.75;40.50;;;;;;;;;;5053494;28;20029;-94
2023/08/06 07:04:54;;;;;;;51.72;49.03;;;;;;;;;;5055473;28;20477;-93
2023/08/06 07:07:20;;;;;;;51.42;48.55;;;;;;;;;;5055484;28;20465;-94
2023/08/06 07:09:49;;;;;;;50.78;47.63;;;;;;;;;;5054903;28;20033;-93
2023/08/06 07:12:19;;;;;;;41.85;39.63;;;;;;;;;;5055086;28;20120;-93
2023/08/06 07:14:45;;;;;;;50.05;47.40;;;;;;;;;;5055142;28;20390;-93
2023/08/06 07:17:14;;;;;;;42.47;40.22;;;;;;;;;;5056187;28;20025;-93
2023/08/06 07:19:43;;;;;;;44.70;42.00;;;;;;;;;;5056246;28;20033;-92
2023/08/06 07:22:13;;;;;;;45.15;42.78;;;;;;;;;;5070644;28;20541;-93
2023/08/06 07:24:45;;;;;;;47.47;44.95;;;;;;;;;;5075397;28;20036;-91
2023/08/06 07:27:13;;;;;;;40.33;38.15;;;;;;;;;;5077273;28;20040;-93
2023/08/06 07:29:42;;;;;;;37.95;35.95;;;;;;;;;;5077169;28;20025;-94
2023/08/06 07:32:15;;;;;;;48.05;45.13;;;;;;;;;;5075158;28;20097;-93
2023/08/06 07:34:41;;;;;;;41.72;39.53;;;;;;;;;;5075073;28;20028;-94
2023/08/06 07:37:07;;;;;;;50.88;48.03;;;;;;;;;;5074897;28;20154;-94
2023/08/06 07:39:33;;;;;;;48.00;45.10;;;;;;;;;;5058176;28;20123;-93
2023/08/06 07:42:04;;;;;;;38.38;36.35;;;;;;;;;;5055001;28;20032;-93
2023/08/06 07:44:30;;;;;;;44.20;41.80;;;;;;;;;;5053589;28;20039;-93
2023/08/06 07:46:56;;;;;;;38.63;36.60;;;;;;;;;;5055325;28;20547;-94
2023/08/06 07:49:22;;;;;;;40.28;38.10;;;;;;;;;;5054859;28;20020;-92
2023/08/06 07:51:49;;;;;;;44.55;42.13;;;;;;;;;;5054550;28;20025;-93
2023/08/06 07:54:18;;;;;;;48.33;44.90;;;;;;;;;;5054896;28;20021;-92
2023/08/06 07:56:44;;;;;;;34.42;32.47;;;;;;;;;;5054299;28;20029;-93
2023/08/06 07:59:10;;;;;;;36.22;34.28;;;;;;;;;;5054395;28;20116;-94
2023/08/06 08:01:37;;;;;;;59.80;55.95;;;;;;;;;;5054077;28;20032;-92
2023/08/06 08:04:07;;;;;;;35.10;33.22;;;;;;;;;;5054448;28;20032;-92
2023/08/06 08:06:34;;;;;;;34.60;32.70;;;;;;;;;;5075198;28;20059;-90
2023/08/06 08:09:00;;;;;;;36.25;34.33;;;;;;;;;;5074471;28;20473;-93
2023/08/06 08:11:32;;;;;;;39.35;37.20;;;;;;;;;;5072880;28;20045;-93
2023/08/06 08:13:58;;;;;;;41.22;39.00;;;;;;;;;;5073702;28;20028;-91
2023/08/06 08:16:28;;;;;;;36.95;34.95;;;;;;;;;;5074490;28;20021;-93
2023/08/06 08:19:00;;;;;;;36.33;34.35;;;;;;;;;;5073829;28;20028;-94
2023/08/06 08:21:26;;;;;;;29.40;27.20;;;;;;;;;;5074131;28;20059;-92
2023/08/06 08:23:55;;;;;;;30.95;29.23;;;;;;;;;;5074109;28;20028;-95
2023/08/06 08:26:27;;;;;;;37.20;35.08;;;;;;;;;;5074146;28;20036;-92
2023/08/06 08:29:14;;;;;;;33.05;31.17;;;;;;;;;;5070706;28;20043;-93
2023/08/06 08:31:44;;;;;;;26.70;25.17;;;;;;;;;;5076521;28;20032;-92
2023/08/06 08:34:32;;;;;;;27.55;26.05;;;;;;;;;;5069910;28;20025;-94
2023/08/06 08:36:58;;;;;;;29.85;28.13;;;;;;;;;;5053325;28;20029;-93
2023/08/06 08:39:30;;;;;;;28.27;26.75;;;;;;;;;;5053374;28;20120;-94
2023/08/06 08:41:56;;;;;;;29.67;28.13;;;;;;;;;;5053471;28;20482;-93
2023/08/06 08:44:31;;;;;;;31.13;29.48;;;;;;;;;;5053349;28;20025;-94
2023/08/06 08:47:03;;;;;;;36.97;34.90;;;;;;;;;;5069008;28;20045;-94
2023/08/06 08:49:30;;;;;;;34.15;32.30;;;;;;;;;;5069918;28;20064;-91
2023/08/06 08:51:57;;;;;;;32.08;30.35;;;;;;;;;;5067208;28;20044;-94
2023/08/06 08:54:24;;;;;;;27.10;25.67;;;;;;;;;;5073313;28;20028;-92
2023/08/06 08:56:50;;;;;;;30.20;28.38;;;;;;;;;;5064960;28;20417;-93
2023/08/06 08:59:19;;;;;;;32.08;30.38;;;;;;;;;;5053428;28;20029;-94
2023/08/06 09:01:51;;;;;;;23.20;21.90;;;;;;;;;;5053884;28;20031;-94
2023/08/06 09:04:18;;;;;;;55.65;51.80;;;;;;;;;;5053142;28;20122;-92
2023/08/06 09:06:46;;;;;;;26.85;25.40;;;;;;;;;;5052892;28;20622;-94
2023/08/06 09:09:23;;;;;;;39.78;37.50;;;;;;;;;;5053002;28;20029;-92
2023/08/06 09:12:15;;;;;;;29.75;28.15;;;;;;;;;;5053783;28;20025;-93
2023/08/06 09:14:42;;;;;;;27.23;25.55;;;;;;;;;;5054592;28;20043;-94
2023/08/06 09:17:10;;;;;;;23.02;21.75;;;;;;;;;;5054072;28;20075;-92
2023/08/06 09:19:36;;;;;;;24.88;23.55;;;;;;;;;;5082274;28;20041;-93
2023/08/06 09:22:02;;;;;;;28.95;27.35;;;;;;;;;;5083995;28;20021;-93
2023/08/06 09:24:29;;;;;;;30.58;28.77;;;;;;;;;;5070252;28;20489;-91
2023/08/06 09:27:03;;;;;;;37.17;35.17;;;;;;;;;;5061042;28;20474;-92
2023/08/06 09:29:34;;;;;;;35.55;33.58;;;;;;;;;;5056523;28;20035;-92
2023/08/06 09:32:01;;;;;;;38.22;35.97;;;;;;;;;;5056752;28;20086;-90
2023/08/06 09:34:27;;;;;;;40.45;38.20;;;;;;;;;;5056792;28;20095;-92
2023/08/06 09:36:57;;;;;;;39.85;37.47;;;;;;;;;;5056444;28;20029;-93
2023/08/06 09:39:27;;;;;;;37.20;35.17;;;;;;;;;;5056693;28;20453;-92
2023/08/06 09:41:57;;;;;;;42.10;39.88;;;;;;;;;;5056686;28;20059;-91
2023/08/06 09:44:27;;;;;;;45.70;43.20;;;;;;;;;;5071319;28;20033;-93
2023/08/06 09:46:57;;;;;;;39.33;37.22;;;;;;;;;;5070747;28;20067;-91
2023/08/06 09:49:32;;;;;;;43.60;41.25;;;;;;;;;;5079381;28;20024;-92
2023/08/06 09:52:05;;;;;;;44.38;41.90;;;;;;;;;;5078466;28;20028;-93
2023/08/06 09:54:34;;;;;;;37.40;35.25;;;;;;;;;;5060929;28;20029;-91
2023/08/06 09:57:04;;;;;;;48.25;45.65;;;;;;;;;;5076339;28;20595;-91
2023/08/06 09:59:36;;;;;;;40.58;38.38;;;;;;;;;;5076593;28;20032;-91
2023/08/06 10:02:08;;;;;;;38.70;36.63;;;;;;;;;;5076300;28;20101;-93
2023/08/06 10:04:35;;;;;;;33.55;31.55;;;;;;;;;;5076948;28;20120;-91
2023/08/06 10:07:08;;;;;;;47.92;45.22;;;;;;;;;;5076060;28;20046;-92
2023/08/06 10:09:34;;;;;;;44.85;42.35;;;;;;;;;;5076142;28;20098;-94
2023/08/06 10:12:03;;;;;;;40.95;38.70;;;;;;;;;;5073631;28;20028;-91
2023/08/06 10:14:36;;;;;;;45.95;43.45;;;;;;;;;;5071717;28;20059;-94
2023/08/06 10:17:12;;;;;;;47.17;44.67;;;;;;;;;;5079891;28;20028;-92
2023/08/06 10:19:38;;;;;;;51.40;48.60;;;;;;;;;;5076428;28;20029;-94
2023/08/06 10:22:13;;;;;;;41.45;39.25;;;;;;;;;;5070236;28;20021;-92
2023/08/06 10:24:55;;;;;;;51.40;48.55;;;;;;;;;;5080731;28;20045;-92
2023/08/06 10:27:27;;;;;;;45.60;43.10;;;;;;;;;;5073733;28;20481;-92
2023/08/06 10:29:56;;;;;;;52.92;50.03;;;;;;;;;;5075592;28;20024;-94
2023/08/06 10:32:45;;;;;;;59.63;56.33;;;;;;;;;;5075766;28;20028;-92
2023/08/06 10:35:33;;;;;;;50.42;47.72;;;;;;;;;;5075087;28;20055;-93
2023/08/06 10:38:11;;;;;;;46.80;44.30;;;;;;;;;;5069598;28;20538;-92
2023/08/06 10:43:44;;;;;;;47.42;44.65;;;;;;;;;;5076886;28;20051;-92
2023/08/06 10:46:14;;;;;;;43.13;40.80;;;;;;;;;;5075024;28;20049;-92
2023/08/06 10:48:45;;;;;;;53.97;51.05;;;;;;;;;;5075407;28;20028;-93
2023/08/06 10:51:15;;;;;;;49.63;46.92;;;;;;;;;;5075938;28;20052;-92
2023/08/06 10:53:53;;;;;;;45.70;43.25;;;;;;;;;;5075321;28;20021;-93
2023/08/06 10:56:26;;;;;;;53.47;50.22;;;;;;;;;;5075206;28;20021;-92
2023/08/06 10:58:57;;;;;;;63.60;60.03;;;;;;;;;;5074787;28;20488;-92
2023/08/06 11:01:27;;;;;;;51.92;48.97;;;;;;;;;;5075248;28;20436;-91
2023/08/06 11:04:22;;;;;;;63.28;59.70;;;;;;;;;;5075161;28;20043;-92
2023/08/06 11:06:54;;;;;;;55.75;52.70;;;;;;;;;;5060902;28;20037;-92
2023/08/06 11:09:20;;;;;;;45.70;43.20;;;;;;;;;;5054527;28;20033;-92
2023/08/06 11:11:46;;;;;;;57.50;54.17;;;;;;;;;;5055076;28;20270;-93
2023/08/06 11:14:16;;;;;;;39.40;37.22;;;;;;;;;;5054931;28;20472;-90
2023/08/06 11:16:45;;;;;;;50.33;47.53;;;;;;;;;;5037453;28;20037;-92
2023/08/06 11:19:11;;;;;;;49.42;46.42;;;;;;;;;;5037296;28;20063;-92
2023/08/06 11:21:37;;;;;;;48.40;45.75;;;;;;;;;;5037563;28;20082;-92
2023/08/06 11:24:07;;;;;;;53.80;50.60;;;;;;;;;;5037787;28;20087;-92
2023/08/06 11:26:40;;;;;;;57.63;54.35;;;;;;;;;;5055543;28;20036;-92
2023/08/06 11:29:11;;;;;;;54.13;51.15;;;;;;;;;;5073734;28;20032;-92
2023/08/06 11:31:41;;;;;;;51.00;48.10;;;;;;;;;;5071424;28;20032;-92
2023/08/06 11:34:07;;;;;;;47.88;45.22;;;;;;;;;;5037316;28;20032;-92
2023/08/06 11:36:37;;;;;;;50.67;47.90;;;;;;;;;;5053813;28;20029;-92
2023/08/06 11:39:07;;;;;;;52.90;49.83;;;;;;;;;;5036930;28;20044;-92
2023/08/06 11:41:37;;;;;;;47.28;44.70;;;;;;;;;;5036953;28;20017;-93
2023/08/06 11:44:07;;;;;;;43.45;41.05;;;;;;;;;;5037295;28;20485;-91
2023/08/06 11:47:07;;;;;;;;;;;;;;;;;;;;;
2023/08/06 11:49:52;;;;;;;46.97;44.38;;;;;;;;;;5055271;28;20474;-92
2023/08/06 11:52:20;;;;;;;46.65;44.08;;;;;;;;;;5051427;28;20041;-92
2023/08/06 11:55:10;;;;;;;46.08;43.55;;;;;;;;;;5054231;28;20095;-93
2023/08/06 11:57:54;;;;;;;48.60;45.88;;;;;;;;;;5062816;28;20116;-93
2023/08/06 12:00:22;;;;;;;42.58;40.17;;;;;;;;;;5072925;28;20067;-93
2023/08/06 12:02:59;;;;;;;;;;;;;;;;;;;;;
2023/08/06 12:05:35;;;;;;;50.58;47.70;;;;;;;;;;5069665;28;20061;-91
2023/08/06 12:08:05;;;;;;;50.70;47.90;;;;;;;;;;5073463;28;20016;-93
2023/08/06 12:10:32;;;;;;;45.40;42.80;;;;;;;;;;5062686;28;20039;-93
2023/08/06 12:13:04;;;;;;;47.00;44.42;;;;;;;;;;5055581;28;20436;-93
2023/08/06 12:15:39;;;;;;;36.97;34.97;;;;;;;;;;5059290;28;20008;-95
2023/08/06 12:18:06;;;;;;;52.90;49.97;;;;;;;;;;5078891;28;20028;-94
2023/08/06 12:20:38;;;;;;;42.90;40.38;;;;;;;;;;5086330;28;20029;-93
2023/08/06 12:23:15;;;;;;;41.37;39.07;;;;;;;;;;5093746;28;20025;-93
2023/08/06 12:25:44;;;;;;;38.40;36.30;;;;;;;;;;5083029;28;20290;-93
2023/08/06 12:28:12;;;;;;;39.33;37.15;;;;;;;;;;5073723;28;20024;-93
2023/08/06 12:30:44;;;;;;;37.03;34.70;;;;;;;;;;5073522;28;20056;-93
2023/08/06 12:33:19;;;;;;;34.38;32.33;;;;;;;;;;5073442;28;20037;-93
2023/08/06 12:35:46;;;;;;;35.45;33.45;;;;;;;;;;5073740;28;20036;-92
2023/08/06 12:38:13;;;;;;;39.03;36.75;;;;;;;;;;5060271;28;20029;-94
2023/08/06 12:40:39;;;;;;;39.47;37.17;;;;;;;;;;5053307;28;20079;-94
2023/08/06 12:43:16;;;;;;;43.30;40.92;;;;;;;;;;5053281;28;20021;-91
2023/08/06 12:45:45;;;;;;;45.53;43.03;;;;;;;;;;5055738;28;20036;-92
2023/08/06 12:48:19;;;;;;;46.13;42.97;;;;;;;;;;5056471;28;20381;-92
2023/08/06 12:50:45;;;;;;;47.72;44.83;;;;;;;;;;5064948;28;20028;-92
2023/08/06 12:53:11;;;;;;;43.10;40.63;;;;;;;;;;5068185;28;20117;-92
2023/08/06 12:55:38;;;;;;;40.50;38.20;;;;;;;;;;5076507;28;20028;-92
2023/08/06 12:58:08;;;;;;;58.95;55.47;;;;;;;;;;5076841;28;20120;-92
2023/08/06 13:00:34;;;;;;;57.28;53.83;;;;;;;;;;5076860;28;20020;-91
2023/08/06 13:03:00;;;;;;;43.10;40.65;;;;;;;;;;5076810;28;20028;-91
2023/08/06 13:05:26;;;;;;;43.40;40.97;;;;;;;;;;5077078;28;20093;-93
2023/08/06 13:07:56;;;;;;;40.95;38.72;;;;;;;;;;5076414;28;20020;-92
2023/08/06 13:10:28;;;;;;;45.40;42.85;;;;;;;;;;5076835;28;20046;-91
2023/08/06 13:12:55;;;;;;;33.03;31.17;;;;;;;;;;5074071;28;20028;-94
2023/08/06 13:15:24;;;;;;;47.20;44.35;;;;;;;;;;5077234;28;20020;-91
2023/08/06 13:17:51;;;;;;;42.92;40.50;;;;;;;;;;5076680;28;20433;-92
2023/08/06 13:20:19;;;;;;;43.03;40.55;;;;;;;;;;5076550;28;20052;-90
2023/08/06 13:22:46;;;;;;;45.53;42.83;;;;;;;;;;5076145;28;20476;-91
2023/08/06 13:25:14;;;;;;;41.13;38.88;;;;;;;;;;5077732;28;20055;-92
2023/08/06 13:27:43;;;;;;;39.88;37.67;;;;;;;;;;5076829;28;20040;-90
2023/08/06 13:30:10;;;;;;;38.95;36.80;;;;;;;;;;5069757;28;20040;-92
2023/08/06 13:32:39;;;;;;;46.20;43.60;;;;;;;;;;5056161;28;20047;-91
2023/08/06 13:35:05;;;;;;;40.97;38.72;;;;;;;;;;5061381;28;20030;-92
2023/08/06 13:37:35;;;;;;;37.53;35.42;;;;;;;;;;5076131;28;20115;-89
2023/08/06 13:40:04;;;;;;;32.28;30.42;;;;;;;;;;5076320;28;20085;-92
2023/08/06 13:42:42;;;;;;;43.40;41.05;;;;;;;;;;5076333;28;20032;-90
2023/08/06 13:45:11;;;;;;;45.47;42.80;;;;;;;;;;5076031;28;20040;-90
2023/08/06 13:47:37;;;;;;;43.95;41.45;;;;;;;;;;5073112;28;20053;-91
2023/08/06 13:50:06;;;;;;;40.83;38.55;;;;;;;;;;5061573;28;20116;-90
2023/08/06 13:52:45;;;;;;;39.22;37.13;;;;;;;;;;5052906;28;20401;-91
2023/08/06 13:55:16;;;;;;;47.72;45.08;;;;;;;;;;5054915;28;20075;-92
2023/08/06 13:57:43;;;;;;;44.85;42.45;;;;;;;;;;5052490;28;20060;-90
2023/08/06 14:00:09;;;;;;;42.03;39.70;;;;;;;;;;5052956;28;20040;-92
2023/08/06 14:02:35;;;;;;;39.80;37.55;;;;;;;;;;5049978;28;20025;-91
2023/08/06 14:05:05;;;;;;;43.25;40.88;;;;;;;;;;5069421;28;20473;-92
2023/08/06 14:07:37;;;;;;;50.35;47.47;;;;;;;;;;5073018;28;20385;-92
2023/08/06 14:10:04;;;;;;;42.83;40.53;;;;;;;;;;5076174;28;20049;-92
2023/08/06 14:12:30;;;;;;;45.03;42.53;;;;;;;;;;5078228;28;20005;-91
2023/08/06 14:15:04;;;;;;;36.17;33.97;;;;;;;;;;5062011;28;20057;-91
2023/08/06 14:17:33;;;;;;;36.08;34.13;;;;;;;;;;5075633;28;20075;-92
2023/08/06 14:20:00;;;;;;;37.05;34.83;;;;;;;;;;5075961;28;20025;-92
2023/08/06 14:22:26;;;;;;;40.00;37.55;;;;;;;;;;5075521;28;20017;-92
2023/08/06 14:24:53;;;;;;;29.02;27.38;;;;;;;;;;5075973;28;20127;-92
2023/08/06 14:27:19;;;;;;;38.55;36.35;;;;;;;;;;5076056;28;20036;-92
2023/08/06 14:29:45;;;;;;;38.13;36.05;;;;;;;;;;5055794;28;20444;-92
2023/08/06 14:32:11;;;;;;;39.92;37.65;;;;;;;;;;5055861;28;20036;-91